Terminal Aerodrome Forecast
Issued by NWS

Home | Current Version | Previous Version | Graphics & Text | Print | Product List | Glossary On
Versions: 1 2 3 4 5 6 7 8 9 10 11 12 13
000
FTUS42 KMHX 300500
TAFOAJ
TAF
KOAJ 300521Z 3006/3106 23005KT P6SM VCSH OVC100
     FM300800 24007KT 6SM -SHRA OVC035
     FM301400 31016G26KT P6SM SCT040
     FM302200 30010G18KT P6SM SKC
      AMD LTD TO CLD VIS AND WIND=

USA.gov is the U.S. government's official web portal to all federal, state and local government web resources and services.